Elias, Kentucky
Current Conditions -  °F | °C
As of 10:53 AM on Friday 28 Nov 2014 (Local Time) from KLOZ Reporting Station
Clear Clear  
Wind Chill: 30°   Ceiling: Unl
Heat Index: 30°   Visibility: 10mi
Dew Point: 17°   Wind: 3mph
Humidity: 59%   Direction: NA
Pressure: 30.4"   Gusts: NA
Location:  37.346°N, 83.8503°W
Report Text: KLOZ 281553Z AUTO VRB03KT 10SM CLR M01/M08 A3040 RMK AO2 SLP304 T10111083
Loading
Personal Weather Stations






























Interactive Weather Map New forecast layout! Learn more

10-Day Weather Forecast

Advertisements
Track Severe Weather on mobile